Time;durP1;ratioP1;P1;durP2;ratioP2;P2;SDS_P1;SDS_P2;PMS_P1;PMS_P2;Temp;Humidity;BMP_temperature;BMP_pressure;BME280_temperature;BME280_humidity;BME280_pressure;Samples;Min_cycle;Max_cycle;Signal;HPM_P1;HPM_P2
2022/06/01 00:01:45;;;;;;;2.70;2.70;;;13.10;99.90;;;;;;6310861;28;20297;-67
2022/06/01 00:04:51;;;;;;;2.92;2.92;;;13.10;99.90;;;;;;6310443;28;20302;-68
2022/06/01 00:07:57;;;;;;;3.08;3.08;;;13.20;99.90;;;;;;6310209;28;20298;-68
2022/06/01 00:11:03;;;;;;;3.55;3.03;;;13.20;99.90;;;;;;6311131;28;20271;-67
2022/06/01 00:14:14;;;;;;;3.97;3.80;;;13.20;99.90;;;;;;6310393;28;20294;-68
2022/06/01 00:17:20;;;;;;;3.47;3.28;;;13.20;99.90;;;;;;6310341;28;20441;-67
2022/06/01 00:20:26;;;;;;;3.70;3.40;;;13.20;99.90;;;;;;6310934;28;20278;-68
2022/06/01 00:23:32;;;;;;;3.63;3.53;;;13.20;99.90;;;;;;6310018;28;20562;-66
2022/06/01 00:26:38;;;;;;;3.75;3.65;;;13.30;99.90;;;;;;6310605;28;20267;-67
2022/06/01 00:29:44;;;;;;;3.22;3.13;;;13.30;99.90;;;;;;6308536;28;20481;-68
2022/06/01 00:32:49;;;;;;;3.63;3.42;;;13.30;99.90;;;;;;6309954;28;20299;-68
2022/06/01 00:35:55;;;;;;;3.38;3.10;;;13.30;99.90;;;;;;6309747;28;20274;-67
2022/06/01 00:39:01;;;;;;;3.65;3.38;;;13.20;99.90;;;;;;6309740;28;20377;-68
2022/06/01 00:42:14;;;;;;;3.28;3.08;;;13.20;99.90;;;;;;6309042;28;20410;-68
2022/06/01 00:45:23;;;;;;;3.30;3.20;;;13.20;99.90;;;;;;6309737;28;20275;-67
2022/06/01 00:48:30;;;;;;;3.53;3.33;;;13.20;99.90;;;;;;6308768;28;20303;-67
2022/06/01 00:51:35;;;;;;;3.35;3.10;;;13.20;99.90;;;;;;6310109;28;20274;-68
2022/06/01 00:54:43;;;;;;;4.30;3.40;;;13.20;99.90;;;;;;6309177;28;20302;-67
2022/06/01 00:57:53;;;;;;;3.63;3.42;;;13.30;99.90;;;;;;6309722;28;20326;-67
2022/06/01 01:00:59;;;;;;;3.42;3.22;;;13.20;99.90;;;;;;6309929;28;20366;-69
2022/06/01 01:04:06;;;;;;;4.18;3.05;;;13.20;99.90;;;;;;6309142;28;20290;-68
2022/06/01 01:07:13;;;;;;;3.22;3.17;;;13.20;99.90;;;;;;6308522;28;20554;-69
2022/06/01 01:10:21;;;;;;;4.97;3.08;;;13.10;99.90;;;;;;6311296;28;20450;-68
2022/06/01 01:13:26;;;;;;;3.05;2.95;;;13.20;99.90;;;;;;6310205;28;20298;-68
2022/06/01 01:16:32;;;;;;;3.30;3.10;;;13.20;99.90;;;;;;6310425;28;20541;-68
2022/06/01 01:19:43;;;;;;;3.28;3.28;;;13.20;99.90;;;;;;6309468;28;20309;-68
2022/06/01 01:22:57;;;;;;;3.50;3.20;;;13.20;99.90;;;;;;6308805;28;20299;-69
2022/06/01 01:26:04;;;;;;;3.30;3.10;;;13.20;99.90;;;;;;6309586;28;20278;-68
2022/06/01 01:29:12;;;;;;;3.05;2.95;;;13.20;99.90;;;;;;6308699;28;20299;-68
2022/06/01 01:32:17;;;;;;;3.10;2.90;;;13.20;99.90;;;;;;6309258;28;20286;-68
2022/06/01 01:35:23;;;;;;;2.95;2.92;;;13.10;99.90;;;;;;6310012;28;20270;-68
2022/06/01 01:38:43;;;;;;;3.10;2.90;;;13.20;99.90;;;;;;6309106;28;20307;-67
2022/06/01 01:41:51;;;;;;;3.05;2.95;;;13.10;99.90;;;;;;6309602;28;20278;-69
2022/06/01 01:45:02;;;;;;;2.85;2.85;;;13.20;99.90;;;;;;6308615;28;20337;-69
2022/06/01 01:48:07;;;;;;;3.72;3.58;;;13.20;99.90;;;;;;6308435;28;20488;-68
2022/06/01 01:51:13;;;;;;;3.05;3.05;;;13.20;99.90;;;;;;6309821;28;20595;-68
2022/06/01 01:54:31;;;;;;;2.67;2.67;;;13.20;99.90;;;;;;6308971;28;20289;-68
2022/06/01 01:57:49;;;;;;;2.70;2.50;;;13.20;99.90;;;;;;6308580;28;20286;-68
2022/06/01 02:00:58;;;;;;;2.60;2.50;;;13.20;99.90;;;;;;6296144;28;20566;-68
2022/06/01 02:06:04;;;;;;;3.20;3.00;;;13.20;99.90;;;;;;6288711;28;20295;-69
2022/06/01 02:07:39;;;;;;;2.70;2.70;;;13.20;99.90;;;;;;6288060;28;20459;-68
2022/06/01 02:14:18;;;;;;;2.85;2.75;;;13.20;99.90;;;;;;6288326;28;20295;-67
2022/06/01 02:17:27;;;;;;;2.85;2.65;;;13.20;99.90;;;;;;6288225;28;20286;-68
2022/06/01 02:20:36;;;;;;;6.72;3.30;;;13.20;99.90;;;;;;6289598;28;20507;-68
2022/06/01 02:23:41;;;;;;;3.30;3.10;;;13.20;99.90;;;;;;6288573;28;20298;-68
2022/06/01 02:26:49;;;;;;;3.05;2.97;;;13.30;99.90;;;;;;6295732;28;20260;-67
2022/06/01 02:30:01;;;;;;;3.25;2.95;;;13.30;99.90;;;;;;6317492;28;20294;-67
2022/06/01 02:33:11;;;;;;;2.60;2.50;;;13.30;99.90;;;;;;6320413;28;20295;-67
2022/06/01 02:36:17;;;;;;;3.00;2.78;;;13.20;99.90;;;;;;6328014;28;20227;-67
2022/06/01 02:39:23;;;;;;;3.15;2.72;;;13.20;99.90;;;;;;6326808;28;20257;-67
2022/06/01 02:42:29;;;;;;;2.85;2.75;;;13.20;99.90;;;;;;6312112;28;20290;-67
2022/06/01 02:45:36;;;;;;;2.60;2.60;;;13.20;99.90;;;;;;6313577;28;20270;-67
2022/06/01 02:48:43;;;;;;;2.58;2.58;;;13.10;99.90;;;;;;6312291;28;20297;-67
2022/06/01 02:51:48;;;;;;;7.82;3.38;;;13.10;99.90;;;;;;6312543;28;20270;-68
2022/06/01 02:54:54;;;;;;;3.30;2.85;;;13.10;99.90;;;;;;6312042;28;20307;-67
2022/06/01 02:57:59;;;;;;;2.60;2.60;;;13.10;99.90;;;;;;6312236;28;20537;-67
2022/06/01 03:01:07;;;;;;;2.75;2.65;;;13.20;99.90;;;;;;6323117;28;20302;-68
2022/06/01 03:04:14;;;;;;;2.70;2.70;;;13.20;99.90;;;;;;6325622;28;20297;-68
2022/06/01 03:07:19;;;;;;;3.10;3.00;;;13.20;99.90;;;;;;6336287;28;20298;-68
2022/06/01 03:10:25;;;;;;;2.78;2.60;;;13.10;99.90;;;;;;6337055;28;20282;-68
2022/06/01 03:13:31;;;;;;;2.85;2.78;;;13.20;99.90;;;;;;6337034;28;20293;-68
2022/06/01 03:16:38;;;;;;;2.92;2.90;;;13.10;99.90;;;;;;6337667;28;20281;-68
2022/06/01 03:19:44;;;;;;;3.25;3.08;;;13.10;99.90;;;;;;6336993;28;20298;-68
2022/06/01 03:22:49;;;;;;;2.80;2.80;;;13.00;99.90;;;;;;6352585;28;20475;-68
2022/06/01 03:25:55;;;;;;;3.17;2.90;;;12.90;99.90;;;;;;6337889;28;20274;-68
2022/06/01 03:29:01;;;;;;;2.60;2.50;;;13.00;99.90;;;;;;6338350;28;20293;-67
2022/06/01 03:32:09;;;;;;;2.80;2.70;;;13.10;99.90;;;;;;6339358;28;20269;-67
2022/06/01 03:35:16;;;;;;;4.38;2.88;;;13.00;99.90;;;;;;6341121;28;20266;-67
2022/06/01 03:38:21;;;;;;;3.58;3.47;;;12.90;99.90;;;;;;6340607;28;20298;-68
2022/06/01 03:41:28;;;;;;;2.92;2.92;;;12.80;99.90;;;;;;6338273;28;20396;-68
2022/06/01 03:47:57;;;;;;;3.40;3.30;;;13.00;99.90;;;;;;6337344;28;20294;-67
2022/06/01 03:51:04;;;;;;;2.85;2.85;;;13.10;99.90;;;;;;6337541;28;20289;-67
2022/06/01 03:54:10;;;;;;;3.28;3.08;;;13.10;99.90;;;;;;6338147;28;20468;-67
2022/06/01 03:57:15;;;;;;;3.22;3.20;;;13.20;99.90;;;;;;6339251;28;20450;-67
2022/06/01 04:00:23;;;;;;;3.25;3.22;;;13.10;99.90;;;;;;6338788;28;20309;-68
2022/06/01 04:03:30;;;;;;;2.90;2.90;;;13.10;99.90;;;;;;6338629;28;20298;-68
2022/06/01 04:06:36;;;;;;;3.13;3.13;;;13.00;99.90;;;;;;6338951;28;20431;-67
2022/06/01 04:09:41;;;;;;;3.28;3.17;;;13.00;99.90;;;;;;6371221;27;20298;-67
2022/06/01 04:12:46;;;;;;;3.22;3.17;;;13.00;99.90;;;;;;6340125;28;20292;-70
2022/06/01 04:15:51;;;;;;;3.08;2.97;;;13.00;99.90;;;;;;6341100;28;20269;-68
2022/06/01 04:18:58;;;;;;;3.60;3.40;;;13.10;99.90;;;;;;6337867;28;20305;-68
2022/06/01 04:22:05;;;;;;;3.42;3.20;;;13.10;99.90;;;;;;6338798;28;20274;-68
2022/06/01 04:25:16;;;;;;;3.42;3.33;;;13.20;99.90;;;;;;6339224;28;20281;-68
2022/06/01 04:28:41;;;;;;;3.53;3.05;;;13.10;99.90;;;;;;6338771;28;20297;-67
2022/06/01 04:31:46;;;;;;;3.65;3.55;;;13.20;99.90;;;;;;6338773;28;20285;-67
2022/06/01 04:34:55;;;;;;;3.63;3.33;;;13.20;99.90;;;;;;6338058;28;20314;-69
2022/06/01 04:38:13;;;;;;;3.03;2.92;;;13.20;99.90;;;;;;6339289;28;20286;-67
2022/06/01 04:41:18;;;;;;;3.53;3.42;;;13.20;99.90;;;;;;6339462;28;20273;-69
2022/06/01 04:44:24;;;;;;;3.40;3.30;;;13.30;99.90;;;;;;6339044;28;20298;-69
2022/06/01 04:47:30;;;;;;;3.30;3.17;;;13.20;99.90;;;;;;6340166;28;20286;-68
2022/06/01 04:50:42;;;;;;;2.65;2.65;;;13.20;99.90;;;;;;6340239;28;20565;-67
2022/06/01 04:53:47;;;;;;;2.90;2.90;;;13.20;99.90;;;;;;6341035;28;20293;-68
2022/06/01 04:56:53;;;;;;;3.03;2.92;;;13.30;99.90;;;;;;6340530;28;20427;-68
2022/06/01 04:59:58;;;;;;;3.22;3.00;;;13.40;99.90;;;;;;6338422;28;20542;-67
2022/06/01 05:03:03;;;;;;;3.10;3.00;;;13.50;99.90;;;;;;6338464;28;20285;-68
2022/06/01 05:06:12;;;;;;;3.00;2.90;;;13.60;99.90;;;;;;6338695;28;20342;-68
2022/06/01 05:09:17;;;;;;;3.63;3.35;;;13.60;99.90;;;;;;6337100;28;20377;-67
2022/06/01 05:12:23;;;;;;;3.38;3.20;;;13.60;99.90;;;;;;6335459;28;20289;-68
2022/06/01 05:15:29;;;;;;;3.03;2.85;;;13.60;99.90;;;;;;6335201;28;20271;-69
2022/06/01 05:18:34;;;;;;;3.10;3.00;;;13.50;99.90;;;;;;6335221;28;20295;-67
2022/06/01 05:21:41;;;;;;;2.92;2.72;;;13.50;99.90;;;;;;6335182;28;20274;-68
2022/06/01 05:24:46;;;;;;;3.10;3.00;;;13.50;99.90;;;;;;6335055;28;20293;-67
2022/06/01 05:27:54;;;;;;;3.00;2.90;;;13.50;99.90;;;;;;6334584;28;20314;-69
2022/06/01 05:31:00;;;;;;;3.15;3.05;;;13.60;99.90;;;;;;6335175;28;20289;-68
2022/06/01 05:34:05;;;;;;;2.97;2.80;;;13.50;99.90;;;;;;6335354;28;20293;-68
2022/06/01 05:37:13;;;;;;;3.30;3.20;;;13.50;99.90;;;;;;6339457;28;20269;-69
2022/06/01 05:40:19;;;;;;;3.00;3.00;;;13.60;99.90;;;;;;6340238;28;20265;-68
2022/06/01 05:43:25;;;;;;;2.55;2.55;;;13.60;99.90;;;;;;6338322;28;20565;-67
2022/06/01 05:46:31;;;;;;;3.08;2.67;;;13.60;99.90;;;;;;6339915;28;20269;-69
2022/06/01 05:49:36;;;;;;;2.80;2.60;;;13.70;99.90;;;;;;6338753;28;20297;-69
2022/06/01 05:52:42;;;;;;;2.88;2.70;;;13.70;99.90;;;;;;6338904;28;20485;-70
2022/06/01 05:55:47;;;;;;;2.40;2.30;;;13.80;99.90;;;;;;6339863;28;20281;-68
2022/06/01 05:58:53;;;;;;;2.70;2.50;;;13.80;99.90;;;;;;6354548;28;20299;-67
2022/06/01 06:01:58;;;;;;;2.83;2.70;;;13.80;99.90;;;;;;6338795;28;20306;-67
2022/06/01 06:06:11;;;;;;;2.65;2.45;;;13.80;99.90;;;;;;6339457;28;20270;-68
2022/06/01 06:08:30;;;;;;;2.72;2.67;;;13.80;99.90;;;;;;6338835;28;20604;-69
2022/06/01 06:11:38;;;;;;;2.65;2.65;;;13.90;99.90;;;;;;6339306;28;20282;-68
2022/06/01 06:14:44;;;;;;;2.45;2.45;;;13.80;99.90;;;;;;6338739;28;20294;-68
2022/06/01 06:17:49;;;;;;;2.67;2.67;;;13.90;99.90;;;;;;6338233;28;20537;-70
2022/06/01 06:20:55;;;;;;;2.58;2.47;;;13.90;99.90;;;;;;6338848;28;20513;-68
2022/06/01 06:24:03;;;;;;;2.70;2.70;;;14.00;99.90;;;;;;6338522;28;20561;-68
2022/06/01 06:27:10;;;;;;;2.55;2.55;;;14.00;99.90;;;;;;6338796;28;20265;-67
2022/06/01 06:30:18;;;;;;;3.38;2.80;;;14.10;99.90;;;;;;6338711;28;20270;-66
2022/06/01 06:33:23;;;;;;;2.78;2.67;;;14.20;99.90;;;;;;6338772;28;20306;-69
2022/06/01 06:36:29;;;;;;;3.00;2.97;;;14.20;99.90;;;;;;6338397;28;20261;-69
2022/06/01 06:39:35;;;;;;;2.90;2.70;;;14.20;99.90;;;;;;6338336;28;20294;-68
2022/06/01 06:42:40;;;;;;;2.78;2.67;;;14.30;99.90;;;;;;6338551;27;20293;-67
2022/06/01 06:45:50;;;;;;;3.83;3.63;;;14.30;99.90;;;;;;6337653;28;20274;-69
2022/06/01 06:48:55;;;;;;;3.05;2.75;;;14.50;99.90;;;;;;6338831;27;20293;-68
2022/06/01 06:52:00;;;;;;;3.20;3.00;;;14.50;99.90;;;;;;6337928;28;20580;-68
2022/06/01 06:55:08;;;;;;;3.08;2.88;;;14.60;99.90;;;;;;6338253;28;20345;-68
2022/06/01 06:58:17;;;;;;;2.92;2.78;;;14.70;99.90;;;;;;6337972;28;20294;-67
2022/06/01 07:01:22;;;;;;;2.67;2.67;;;14.80;99.90;;;;;;6353478;28;20580;-69
2022/06/01 07:04:28;;;;;;;3.30;3.05;;;14.90;99.90;;;;;;6337638;28;20449;-68
2022/06/01 07:07:33;;;;;;;3.38;3.28;;;15.00;99.90;;;;;;6338097;28;20288;-67
2022/06/01 07:10:40;;;;;;;2.47;2.33;;;14.90;99.90;;;;;;6337654;28;20424;-67
2022/06/01 07:13:45;;;;;;;2.83;2.72;;;15.00;99.90;;;;;;6337340;28;20297;-68
2022/06/01 07:16:50;;;;;;;2.70;2.60;;;15.00;99.90;;;;;;6338216;28;20274;-69
2022/06/01 07:19:56;;;;;;;2.40;2.40;;;15.20;99.90;;;;;;6336955;27;20290;-69
2022/06/01 07:23:04;;;;;;;2.10;2.10;;;15.20;99.90;;;;;;6337393;28;20293;-69
2022/06/01 07:26:18;;;;;;;2.70;2.35;;;15.30;99.90;;;;;;6338265;28;20270;-70
2022/06/01 07:29:23;;;;;;;2.58;2.47;;;15.40;99.90;;;;;;6337095;28;20294;-68
2022/06/01 07:32:28;;;;;;;2.30;2.20;;;15.50;99.90;;;;;;6337103;28;20298;-68
2022/06/01 07:35:33;;;;;;;2.33;2.20;;;15.70;99.90;;;;;;6338543;28;20273;-68
2022/06/01 07:45:29;;;;;;;2.00;2.00;;;15.80;99.90;;;;;;6353585;28;20218;-68
2022/06/01 07:48:34;;;;;;;2.20;2.00;;;16.00;99.90;;;;;;6353049;28;20242;-68
2022/06/01 07:52:00;;;;;;;1.70;1.70;;;16.10;99.90;;;;;;6340373;28;20270;-68
2022/06/01 07:55:09;;;;;;;1.55;1.55;;;16.20;99.90;;;;;;6336838;28;20290;-67
2022/06/01 07:58:16;;;;;;;1.70;1.70;;;16.20;99.90;;;;;;6336660;28;20293;-68
2022/06/01 08:01:25;;;;;;;2.60;2.40;;;16.30;99.90;;;;;;6336621;28;20297;-69
2022/06/01 08:04:31;;;;;;;2.08;1.95;;;16.40;99.90;;;;;;6336198;28;20317;-69
2022/06/01 08:07:42;;;;;;;1.70;1.70;;;16.50;99.90;;;;;;6336564;28;20285;-68
2022/06/01 08:10:47;;;;;;;1.75;1.75;;;16.50;99.90;;;;;;6337075;28;20419;-68
2022/06/01 08:13:54;;;;;;;1.70;1.70;;;16.60;99.90;;;;;;6335990;28;20297;-68
2022/06/01 08:16:59;;;;;;;1.80;1.80;;;16.60;99.90;;;;;;6335454;28;20325;-69
2022/06/01 08:20:06;;;;;;;3.92;1.70;;;16.70;99.90;;;;;;6336649;28;20325;-69
2022/06/01 08:23:13;;;;;;;2.25;1.92;;;16.70;99.90;;;;;;6335543;28;20302;-67
2022/06/01 08:26:19;;;;;;;1.90;1.77;;;16.70;99.90;;;;;;6336593;27;20269;-68
2022/06/01 08:29:25;;;;;;;2.20;1.98;;;16.50;99.90;;;;;;6336568;28;20316;-71
2022/06/01 08:32:31;;;;;;;2.00;1.90;;;16.60;99.90;;;;;;6335682;28;20448;-69
2022/06/01 08:35:39;;;;;;;1.67;1.67;;;16.80;99.90;;;;;;6335770;28;20537;-68
2022/06/01 08:38:44;;;;;;;1.77;1.67;;;16.80;99.90;;;;;;6350445;28;20305;-69
2022/06/01 08:41:49;;;;;;;2.22;2.10;;;17.00;99.90;;;;;;6336197;28;20270;-69
2022/06/01 08:45:01;;;;;;;2.80;2.70;;;17.10;99.90;;;;;;6336484;28;20293;-68
2022/06/01 08:48:07;;;;;;;1.90;1.70;;;17.30;99.90;;;;;;6337311;28;20298;-68
2022/06/01 08:51:13;;;;;;;1.80;1.80;;;17.40;99.90;;;;;;6335459;28;20353;-68
2022/06/01 08:54:20;;;;;;;1.80;1.80;;;17.50;99.90;;;;;;6350369;28;20298;-68
2022/06/01 08:57:29;;;;;;;4.22;1.83;;;17.50;99.90;;;;;;6334793;28;20580;-69
2022/06/01 09:00:49;;;;;;;3.85;2.00;;;17.50;99.90;;;;;;6326658;28;20366;-69
2022/06/01 09:04:05;;;;;;;3.70;2.30;;;17.50;99.90;;;;;;6335188;28;20306;-69
2022/06/01 09:07:24;;;;;;;1.75;1.65;;;17.40;99.90;;;;;;6349632;28;20274;-67
2022/06/01 09:10:51;;;;;;;2.17;2.08;;;17.50;99.90;;;;;;6334526;28;20553;-69
2022/06/01 09:14:03;;;;;;;5.05;2.05;;;17.50;99.90;;;;;;6334311;28;20298;-68
2022/06/01 09:17:10;;;;;;;2.38;1.98;;;17.50;99.90;;;;;;6334674;28;20265;-68
2022/06/01 09:23:43;;;;;;;2.97;1.70;;;17.50;99.90;;;;;;6349763;28;20294;-68
2022/06/01 09:27:08;;;;;;;5.53;1.63;;;17.60;99.90;;;;;;6335543;28;20278;-68
2022/06/01 09:30:23;;;;;;;5.47;1.45;;;17.70;99.90;;;;;;6333882;28;20273;-68
2022/06/01 09:33:32;;;;;;;2.50;1.92;;;17.70;99.90;;;;;;6350439;27;20293;-68
2022/06/01 09:37:08;;;;;;;6.18;1.77;;;17.70;99.90;;;;;;6334994;28;20562;-69
2022/06/01 09:40:26;;;;;;;1.77;1.67;;;17.80;99.90;;;;;;6334193;28;20398;-68
2022/06/01 09:43:31;;;;;;;3.22;2.17;;;17.80;99.90;;;;;;6334303;28;20293;-70
2022/06/01 09:46:50;;;;;;;2.10;1.98;;;17.80;99.90;;;;;;6334629;28;20453;-68
2022/06/01 09:49:59;;;;;;;2.05;2.00;;;17.90;99.90;;;;;;6335070;28;20581;-68
2022/06/01 09:53:17;;;;;;;3.42;1.92;;;18.10;99.90;;;;;;6335292;27;20294;-69
2022/06/01 09:56:32;;;;;;;2.10;2.00;;;17.90;99.90;;;;;;6334671;28;20285;-67
2022/06/01 10:06:30;;;;;;;1.80;1.80;;;18.10;99.90;;;;;;6334604;28;20266;-70
2022/06/01 10:09:36;;;;;;;1.77;1.73;;;18.10;99.90;;;;;;6349002;28;20294;-68
2022/06/01 10:12:46;;;;;;;2.33;2.03;;;18.10;99.90;;;;;;6316220;28;20293;-69
2022/06/01 10:15:52;;;;;;;7.55;1.98;;;18.00;99.90;;;;;;6316665;28;20423;-69
2022/06/01 10:19:01;;;;;;;7.15;2.15;;;18.10;99.90;;;;;;6333729;28;20317;-69
2022/06/01 10:22:15;;;;;;;2.35;2.13;;;18.20;99.90;;;;;;6336415;28;20265;-69
2022/06/01 10:25:34;;;;;;;2.22;2.13;;;18.20;99.90;;;;;;6320239;28;20266;-69
2022/06/01 10:28:42;;;;;;;6.40;2.40;;;18.10;99.90;;;;;;6338556;28;20298;-69
2022/06/01 10:31:50;;;;;;;3.80;1.98;;;18.10;99.90;;;;;;6339217;28;20427;-69
2022/06/01 10:35:05;;;;;;;3.97;2.10;;;18.00;99.90;;;;;;6337964;28;20309;-69
2022/06/01 10:38:18;;;;;;;4.00;2.35;;;18.00;99.90;;;;;;6338093;28;20293;-69
2022/06/01 10:41:29;;;;;;;5.35;2.20;;;18.10;99.90;;;;;;6338672;28;20273;-69
2022/06/01 10:44:41;;;;;;;2.15;2.10;;;18.10;99.90;;;;;;6337936;28;20313;-68
2022/06/01 10:47:58;;;;;;;3.45;2.20;;;18.10;99.90;;;;;;6337976;28;20298;-68
2022/06/01 10:51:10;;;;;;;1.90;1.90;;;18.20;99.90;;;;;;6338398;28;20270;-69
2022/06/01 10:54:37;;;;;;;4.50;2.30;;;18.10;99.90;;;;;;6337557;28;20322;-68
2022/06/01 10:57:45;;;;;;;2.28;2.17;;;18.10;99.90;;;;;;6353132;28;20441;-68
2022/06/01 11:00:56;;;;;;;2.83;1.85;;;18.10;99.90;;;;;;6337938;28;20301;-69
2022/06/01 11:04:34;;;;;;;3.85;1.70;;;18.20;99.90;;;;;;6337837;28;20290;-68
2022/06/01 11:07:52;;;;;;;2.92;1.92;;;18.30;99.90;;;;;;6336726;28;20309;-70
2022/06/01 11:11:08;;;;;;;1.60;1.60;;;18.30;99.70;;;;;;6338523;28;20455;-71
2022/06/01 11:14:37;;;;;;;10.45;2.38;;;18.30;99.90;;;;;;6337516;28;20589;-68
2022/06/01 11:17:47;;;;;;;2.38;1.58;;;18.40;97.80;;;;;;6336983;28;20305;-69
2022/06/01 11:21:06;;;;;;;4.20;1.73;;;18.40;97.10;;;;;;6338181;28;20522;-69
2022/06/01 11:24:46;;;;;;;8.05;1.98;;;18.30;97.80;;;;;;6335226;28;20543;-69
2022/06/01 11:28:13;;;;;;;7.32;1.60;;;18.30;98.40;;;;;;6336788;28;20302;-69
2022/06/01 11:31:21;;;;;;;2.00;1.90;;;18.30;96.80;;;;;;6337233;28;20473;-69
2022/06/01 11:34:33;;;;;;;4.10;1.63;;;18.40;97.20;;;;;;6337861;28;20298;-69
2022/06/01 11:37:45;;;;;;;1.67;1.58;;;18.50;97.70;;;;;;6336913;28;20293;-69
2022/06/01 11:40:53;;;;;;;1.92;1.63;;;18.40;97.90;;;;;;6337374;28;20269;-68
2022/06/01 11:44:03;;;;;;;1.58;1.58;;;18.20;96.60;;;;;;6336619;28;20577;-70
2022/06/01 11:47:15;;;;;;;1.55;1.55;;;18.10;96.90;;;;;;6336980;28;20273;-69
2022/06/01 11:50:53;;;;;;;1.90;1.80;;;18.10;97.20;;;;;;6337741;28;20271;-69
2022/06/01 11:54:04;;;;;;;4.75;1.45;;;18.30;95.70;;;;;;6336449;28;20294;-69
2022/06/01 11:57:40;;;;;;;2.17;2.08;;;18.30;95.40;;;;;;6336780;27;20293;-68
2022/06/01 12:00:57;;;;;;;1.70;1.60;;;18.40;96.60;;;;;;6336480;28;20413;-70
2022/06/01 12:04:17;;;;;;;8.10;2.50;;;18.40;96.50;;;;;;6336554;28;20294;-69
2022/06/01 12:07:33;;;;;;;2.67;1.50;;;18.60;95.40;;;;;;6336253;28;20293;-69
2022/06/01 12:10:56;;;;;;;2.05;1.95;;;18.40;95.10;;;;;;6351917;28;20269;-69
2022/06/01 12:14:01;;;;;;;2.45;1.83;;;18.50;94.80;;;;;;6335635;28;20293;-69
2022/06/01 12:17:34;;;;;;;1.67;1.67;;;18.40;94.70;;;;;;6336132;28;20293;-70
2022/06/01 12:20:53;;;;;;;4.00;2.00;;;18.50;96.00;;;;;;6336192;28;20433;-68
2022/06/01 12:30:51;;;;;;;6.18;1.70;;;18.70;95.70;;;;;;6336401;28;20266;-70
2022/06/01 12:34:16;;;;;;;6.28;1.60;;;18.70;95.20;;;;;;6335535;28;20305;-68
2022/06/01 12:37:28;;;;;;;1.67;1.60;;;18.90;93.50;;;;;;6335732;28;20584;-68
2022/06/01 12:40:33;;;;;;;1.60;1.60;;;18.70;92.40;;;;;;6336532;28;20533;-68
2022/06/01 12:43:40;;;;;;;1.92;1.50;;;18.70;93.60;;;;;;6335255;28;20302;-70
2022/06/01 12:46:51;;;;;;;1.63;1.52;;;18.70;93.40;;;;;;6336227;28;20385;-69
2022/06/01 12:50:10;;;;;;;1.58;1.50;;;18.80;92.90;;;;;;6350423;28;20318;-69
2022/06/01 12:53:21;;;;;;;2.17;1.58;;;18.80;93.00;;;;;;6335144;28;20533;-69
2022/06/01 12:56:27;;;;;;;3.13;1.52;;;18.80;92.40;;;;;;6335494;28;20289;-69
2022/06/01 12:59:37;;;;;;;3.08;1.40;;;18.90;91.60;;;;;;6334473;28;20297;-70
2022/06/01 13:02:45;;;;;;;2.25;1.63;;;18.90;91.00;;;;;;6329686;28;20294;-68
2022/06/01 13:05:56;;;;;;;1.65;1.52;;;18.90;90.80;;;;;;6347519;28;20198;-70
2022/06/01 13:09:08;;;;;;;1.55;1.55;;;18.90;91.10;;;;;;6350248;28;20257;-67
2022/06/01 13:12:18;;;;;;;2.40;1.70;;;18.90;92.40;;;;;;6350575;28;20221;-69
2022/06/01 13:15:26;;;;;;;2.35;1.60;;;18.90;91.90;;;;;;6350855;28;20233;-68
2022/06/01 13:18:38;;;;;;;1.50;1.40;;;19.10;92.80;;;;;;6337457;28;20297;-68
2022/06/01 13:21:50;;;;;;;1.52;1.50;;;19.10;92.70;;;;;;6335443;28;20265;-69
2022/06/01 13:24:58;;;;;;;3.38;1.95;;;19.00;93.40;;;;;;6334728;28;20322;-69
2022/06/01 13:28:04;;;;;;;1.85;1.60;;;18.80;93.30;;;;;;6334501;28;20321;-69
2022/06/01 13:31:09;;;;;;;2.10;1.70;;;18.70;93.50;;;;;;6333662;28;20560;-69
2022/06/01 13:34:22;;;;;;;1.48;1.38;;;18.70;94.40;;;;;;6350165;28;20293;-68
2022/06/01 13:37:30;;;;;;;2.05;1.77;;;18.80;93.20;;;;;;6334259;28;20294;-69
2022/06/01 13:40:43;;;;;;;1.38;1.35;;;19.90;92.60;;;;;;6334897;28;20274;-70
2022/06/01 13:43:51;;;;;;;2.10;1.70;;;19.90;91.80;;;;;;6334309;28;20317;-69
2022/06/01 13:46:56;;;;;;;2.17;1.63;;;19.70;92.70;;;;;;6334237;28;20270;-68
2022/06/01 13:50:19;;;;;;;1.60;1.50;;;20.50;91.00;;;;;;6334967;28;20270;-68
2022/06/01 13:53:32;;;;;;;1.70;1.70;;;21.00;88.90;;;;;;6334486;28;20543;-69
2022/06/01 13:56:44;;;;;;;1.63;1.55;;;21.10;87.60;;;;;;6338510;28;20342;-68
2022/06/01 13:59:55;;;;;;;4.78;1.50;;;21.00;88.20;;;;;;6335433;28;20302;-67
2022/06/01 14:03:14;;;;;;;8.77;1.60;;;20.40;89.60;;;;;;6310844;28;20298;-69
2022/06/01 14:06:33;;;;;;;2.72;1.75;;;21.10;89.30;;;;;;6314228;28;20442;-68
2022/06/01 14:09:47;;;;;;;1.80;1.70;;;20.90;89.30;;;;;;6311039;28;20329;-69
2022/06/01 14:12:52;;;;;;;2.95;1.70;;;20.60;90.40;;;;;;6313296;28;20299;-69
2022/06/01 14:15:58;;;;;;;2.15;1.70;;;20.20;91.40;;;;;;6313417;28;20262;-68
2022/06/01 14:19:04;;;;;;;3.00;1.55;;;20.20;91.60;;;;;;6312741;28;20294;-69
2022/06/01 14:22:14;;;;;;;2.70;1.80;;;20.00;91.30;;;;;;6312611;28;20303;-68
2022/06/01 14:28:44;;;;;;;5.80;1.55;;;20.00;91.00;;;;;;6312676;28;20298;-69
2022/06/01 14:31:49;;;;;;;2.47;1.52;;;19.80;90.50;;;;;;6313201;28;20319;-69
2022/06/01 14:34:54;;;;;;;6.05;1.80;;;19.80;90.90;;;;;;6312464;28;20505;-69
2022/06/01 14:37:59;;;;;;;3.50;2.33;;;19.50;91.80;;;;;;6312801;28;20302;-69
2022/06/01 14:41:09;;;;;;;6.60;2.03;;;19.60;92.60;;;;;;6313022;28;20270;-69
2022/06/01 14:44:20;;;;;;;1.65;1.65;;;19.80;92.80;;;;;;6312117;28;20302;-68
2022/06/01 14:47:25;;;;;;;3.97;1.75;;;20.00;92.60;;;;;;6311975;28;20440;-68
2022/06/01 14:50:30;;;;;;;3.92;1.40;;;20.30;92.20;;;;;;6312989;28;20274;-70
2022/06/01 14:53:40;;;;;;;6.32;1.60;;;20.20;91.80;;;;;;6312209;28;20294;-69
2022/06/01 14:56:46;;;;;;;1.67;1.60;;;20.10;91.20;;;;;;6312687;28;20279;-68
2022/06/01 14:59:51;;;;;;;2.75;1.70;;;19.90;91.90;;;;;;6309620;28;20321;-68
2022/06/01 15:02:57;;;;;;;1.70;1.60;;;19.50;92.10;;;;;;6310654;28;20287;-68
2022/06/01 15:06:03;;;;;;;2.42;1.48;;;19.40;93.40;;;;;;6311988;28;20270;-69
2022/06/01 15:09:08;;;;;;;3.20;1.70;;;19.50;94.00;;;;;;6311629;28;20302;-68
2022/06/01 15:12:15;;;;;;;5.25;2.55;;;19.30;94.10;;;;;;6334097;28;20266;-68
2022/06/01 15:15:20;;;;;;;2.97;1.63;;;19.10;95.10;;;;;;6337223;28;20269;-69
2022/06/01 15:18:26;;;;;;;2.13;1.20;;;18.90;94.70;;;;;;6336817;28;20469;-69
2022/06/01 15:21:31;;;;;;;1.60;1.40;;;19.30;94.20;;;;;;6336682;28;20369;-69
2022/06/01 15:24:37;;;;;;;2.25;1.48;;;19.50;93.90;;;;;;6336919;28;20298;-68
2022/06/01 15:27:43;;;;;;;1.23;1.23;;;19.80;93.50;;;;;;6334806;28;20290;-69
2022/06/01 15:40:57;;;;;;;1.40;1.40;;;19.30;92.30;;;;;;6336768;28;20294;-69
2022/06/01 15:44:06;;;;;;;1.65;1.60;;;18.80;93.40;;;;;;6336095;28;20292;-68
2022/06/01 15:47:18;;;;;;;2.70;1.50;;;18.80;93.60;;;;;;6335880;28;20277;-68
2022/06/01 15:50:25;;;;;;;1.88;1.35;;;18.50;93.40;;;;;;6336183;28;20270;-68
2022/06/01 15:53:30;;;;;;;1.45;1.45;;;18.60;93.40;;;;;;6336173;28;20293;-69
2022/06/01 15:56:36;;;;;;;2.55;1.27;;;18.30;93.20;;;;;;6336299;28;20350;-69
2022/06/01 15:59:43;;;;;;;3.50;1.60;;;18.30;93.70;;;;;;6334065;28;20293;-69
2022/06/01 16:02:48;;;;;;;1.88;1.65;;;18.30;93.50;;;;;;6310578;28;20320;-68
2022/06/01 16:05:54;;;;;;;1.83;1.50;;;18.10;93.40;;;;;;6310649;28;20266;-68
2022/06/01 16:08:59;;;;;;;1.83;1.60;;;18.10;94.10;;;;;;6310641;28;20301;-69
2022/06/01 16:12:06;;;;;;;6.15;1.50;;;18.10;94.20;;;;;;6310780;28;20263;-69
2022/06/01 16:15:13;;;;;;;3.25;1.45;;;17.70;94.70;;;;;;6311344;28;20267;-69
2022/06/01 16:18:18;;;;;;;5.60;1.48;;;17.60;95.50;;;;;;6309330;28;20486;-69
2022/06/01 16:21:24;;;;;;;1.98;1.77;;;17.90;95.10;;;;;;6310297;28;20437;-68
2022/06/01 16:24:29;;;;;;;1.52;1.52;;;17.80;95.30;;;;;;6310886;28;20298;-68
2022/06/01 16:27:35;;;;;;;1.40;1.40;;;17.80;95.50;;;;;;6311384;28;20294;-69
2022/06/01 16:30:44;;;;;;;1.85;1.70;;;18.00;95.00;;;;;;6311570;28;20270;-69
2022/06/01 16:33:51;;;;;;;1.90;1.90;;;18.00;94.80;;;;;;6310110;28;20290;-69
2022/06/01 16:36:57;;;;;;;2.40;2.30;;;17.90;95.60;;;;;;6310229;28;20271;-68
2022/06/01 16:40:02;;;;;;;1.80;1.67;;;17.80;95.30;;;;;;6309402;28;20286;-70
2022/06/01 16:43:10;;;;;;;1.70;1.70;;;17.70;95.50;;;;;;6310305;28;20294;-69
2022/06/01 16:46:17;;;;;;;3.00;1.75;;;17.50;95.60;;;;;;6310374;28;20346;-69
2022/06/01 16:49:22;;;;;;;2.25;1.90;;;17.50;95.70;;;;;;6309704;28;20298;-70
2022/06/01 16:52:29;;;;;;;2.60;2.00;;;17.30;96.60;;;;;;6308235;28;20608;-68
2022/06/01 16:55:34;;;;;;;3.80;1.90;;;17.20;96.80;;;;;;6310500;28;20290;-68
2022/06/01 16:58:40;;;;;;;1.98;1.88;;;17.30;97.20;;;;;;6309996;28;20467;-70
2022/06/01 17:01:46;;;;;;;4.15;2.08;;;17.30;97.40;;;;;;6325376;28;20301;-69
2022/06/01 17:04:55;;;;;;;1.88;1.88;;;17.30;97.30;;;;;;6334806;28;20293;-69
2022/06/01 17:08:02;;;;;;;2.25;2.15;;;17.20;97.80;;;;;;6334766;28;20294;-68
2022/06/01 17:11:09;;;;;;;2.30;2.10;;;17.30;97.90;;;;;;6320234;28;20270;-68